createdAt,value
2022-10-31T00:02:36.581Z,93.50
2022-10-31T00:05:43.255Z,93.70
2022-10-31T00:08:52.955Z,93.90
2022-10-31T00:11:54.530Z,93.10
2022-10-31T00:14:56.039Z,93.80
2022-10-31T00:17:59.380Z,94.20
2022-10-31T00:21:02.745Z,94.00
2022-10-31T00:24:04.779Z,94.20
2022-10-31T00:27:06.441Z,94.10
2022-10-31T00:30:08.514Z,94.20
2022-10-31T00:33:10.061Z,94.30
2022-10-31T00:36:14.585Z,94.40
2022-10-31T00:39:16.386Z,94.40
2022-10-31T00:42:17.950Z,94.30
2022-10-31T00:45:19.531Z,94.50
2022-10-31T00:48:21.031Z,94.40
2022-10-31T00:51:22.586Z,94.50
2022-10-31T00:54:24.117Z,94.40
2022-10-31T00:57:25.681Z,94.40
2022-10-31T01:00:27.531Z,94.40
2022-10-31T01:03:32.416Z,94.40
2022-10-31T01:06:33.976Z,94.20
2022-10-31T01:09:35.861Z,94.50
2022-10-31T01:12:39.002Z,94.00
2022-10-31T01:15:40.575Z,94.60
2022-10-31T01:18:42.963Z,94.40
2022-10-31T01:21:44.507Z,94.60
2022-10-31T01:24:46.055Z,94.80
2022-10-31T01:27:47.599Z,94.60
2022-10-31T01:30:49.148Z,94.60
2022-10-31T01:33:51.062Z,94.50
2022-10-31T01:36:52.991Z,94.60
2022-10-31T01:39:54.572Z,94.60
2022-10-31T01:42:56.264Z,94.70
2022-10-31T01:45:57.930Z,94.60
2022-10-31T01:49:03.291Z,94.60
2022-10-31T01:52:10.291Z,94.60
2022-10-31T01:55:21.123Z,94.60
2022-10-31T01:58:28.601Z,94.00
2022-10-31T02:01:30.501Z,94.70
2022-10-31T02:04:32.210Z,94.80
2022-10-31T02:07:51.970Z,95.30
2022-10-31T02:10:54.071Z,95.10
2022-10-31T02:13:55.805Z,95.00
2022-10-31T02:16:58.683Z,95.20
2022-10-31T02:20:16.940Z,95.50
2022-10-31T02:23:45.228Z,95.40
2022-10-31T02:27:10.017Z,94.50
2022-10-31T02:30:24.476Z,94.50
2022-10-31T02:33:46.193Z,95.40
2022-10-31T02:37:02.845Z,94.80
2022-10-31T02:40:24.494Z,94.70
2022-10-31T02:43:30.275Z,95.00
2022-10-31T02:46:46.489Z,96.10
2022-10-31T02:50:12.040Z,95.00
2022-10-31T02:53:16.418Z,95.10
2022-10-31T02:56:19.884Z,95.80
2022-10-31T02:59:22.559Z,96.00
2022-10-31T03:02:36.260Z,96.00
2022-10-31T03:05:56.264Z,95.20
2022-10-31T03:09:12.277Z,95.10
2022-10-31T03:12:36.402Z,95.20
2022-10-31T03:15:49.739Z,96.10
2022-10-31T03:18:56.736Z,95.30
2022-10-31T03:22:21.855Z,96.00
2022-10-31T03:25:24.312Z,96.20
2022-10-31T03:28:31.740Z,96.00
2022-10-31T03:32:01.406Z,96.10
2022-10-31T03:35:05.174Z,95.50
2022-10-31T03:38:08.068Z,96.00
2022-10-31T03:41:14.781Z,96.10
2022-10-31T03:44:20.102Z,96.60
2022-10-31T03:47:22.100Z,96.20
2022-10-31T03:50:29.494Z,96.90
2022-10-31T03:53:41.849Z,96.50
2022-10-31T03:56:56.713Z,95.70
2022-10-31T04:00:07.266Z,95.60
2022-10-31T04:03:13.856Z,96.60
2022-10-31T04:06:18.934Z,95.30
2022-10-31T04:09:21.310Z,96.30
2022-10-31T04:12:25.196Z,96.50
2022-10-31T04:15:28.225Z,96.50
2022-10-31T04:18:29.866Z,96.40
2022-10-31T04:21:31.858Z,96.60
2022-10-31T04:24:34.528Z,96.40
2022-10-31T04:27:36.068Z,96.50
2022-10-31T04:30:37.810Z,96.50
2022-10-31T04:33:39.407Z,96.40
2022-10-31T04:36:40.962Z,96.40
2022-10-31T04:39:42.493Z,96.50
2022-10-31T04:42:44.035Z,96.40
2022-10-31T04:45:45.598Z,96.90
2022-10-31T04:48:47.180Z,96.60
2022-10-31T04:51:48.778Z,96.40
2022-10-31T04:54:50.331Z,96.40
2022-10-31T04:57:51.916Z,96.50
2022-10-31T05:00:54.683Z,96.50
2022-10-31T05:03:56.360Z,96.50
2022-10-31T05:06:57.864Z,96.40
2022-10-31T05:09:59.397Z,96.60
2022-10-31T05:13:03.121Z,96.70
2022-10-31T05:16:05.356Z,96.80
2022-10-31T05:19:07.117Z,96.60
2022-10-31T05:22:08.670Z,96.50
2022-10-31T05:25:10.333Z,96.90
2022-10-31T05:28:11.857Z,97.10
2022-10-31T05:31:13.491Z,97.00
2022-10-31T05:34:15.027Z,97.10
2022-10-31T05:37:16.535Z,97.10
2022-10-31T05:40:19.986Z,97.10
2022-10-31T05:43:21.541Z,97.10
2022-10-31T05:46:23.095Z,97.10
2022-10-31T05:49:24.735Z,97.10
2022-10-31T05:52:26.242Z,97.40
2022-10-31T05:55:28.682Z,97.10
2022-10-31T05:58:30.207Z,97.20
2022-10-31T06:01:31.767Z,97.10
2022-10-31T06:04:33.423Z,97.10
2022-10-31T06:07:36.198Z,96.90
2022-10-31T06:10:37.727Z,97.10
2022-10-31T06:13:39.303Z,97.10
2022-10-31T06:16:40.938Z,97.00
2022-10-31T06:19:42.539Z,97.20
2022-10-31T06:22:44.157Z,97.30
2022-10-31T06:25:52.298Z,97.90
2022-10-31T06:28:53.898Z,98.00
2022-10-31T06:31:55.442Z,97.40
2022-10-31T06:34:56.981Z,97.30
2022-10-31T06:37:58.734Z,97.20
2022-10-31T06:41:06.641Z,97.10
2022-10-31T06:44:09.035Z,96.60
2022-10-31T06:47:10.667Z,97.20
2022-10-31T06:50:12.257Z,97.40
2022-10-31T06:53:15.155Z,97.40
2022-10-31T06:56:16.784Z,97.40
2022-10-31T06:59:18.831Z,97.40
2022-10-31T07:02:20.445Z,97.40
2022-10-31T07:05:22.192Z,97.30
2022-10-31T07:08:24.205Z,97.30
2022-10-31T07:11:25.773Z,97.70
2022-10-31T07:14:27.346Z,97.80
2022-10-31T07:17:30.215Z,97.40
2022-10-31T07:20:37.104Z,97.40
2022-10-31T07:23:38.677Z,98.00
2022-10-31T07:26:40.298Z,97.50
2022-10-31T07:29:41.874Z,97.60
2022-10-31T07:32:51.129Z,97.40
2022-10-31T07:35:53.129Z,97.50
2022-10-31T07:38:54.700Z,97.40
2022-10-31T07:41:59.639Z,98.00
2022-10-31T07:45:01.196Z,97.50
2022-10-31T07:48:03.467Z,97.20
2022-10-31T07:51:20.537Z,97.40
2022-10-31T07:54:36.554Z,97.30
2022-10-31T07:58:20.294Z,97.80
2022-10-31T08:01:58.163Z,98.40
2022-10-31T08:05:01.114Z,96.90
2022-10-31T08:08:04.730Z,98.00
2022-10-31T08:11:06.450Z,97.40
2022-10-31T08:14:08.002Z,97.20
2022-10-31T08:17:09.562Z,97.40
2022-10-31T08:20:11.294Z,97.40
2022-10-31T08:23:14.189Z,97.20
2022-10-31T08:26:15.730Z,97.40
2022-10-31T08:29:17.276Z,97.20
2022-10-31T08:32:18.826Z,97.20
2022-10-31T08:35:20.371Z,97.10
2022-10-31T08:38:22.497Z,97.00
2022-10-31T08:41:24.157Z,96.90
2022-10-31T08:44:25.662Z,96.80
2022-10-31T08:47:28.718Z,96.70
2022-10-31T08:50:31.797Z,96.60
2022-10-31T08:53:33.572Z,96.50
2022-10-31T08:56:35.144Z,96.50
2022-10-31T08:59:36.714Z,96.50
2022-10-31T09:02:39.311Z,96.40
2022-10-31T09:05:41.093Z,96.60
2022-10-31T09:08:42.732Z,96.30
2022-10-31T09:11:44.262Z,96.30
2022-10-31T09:14:45.790Z,96.20
2022-10-31T09:17:48.779Z,96.10
2022-10-31T09:20:51.285Z,96.20
2022-10-31T09:23:54.805Z,96.20
2022-10-31T09:26:56.336Z,96.10
2022-10-31T09:29:57.901Z,96.00
2022-10-31T09:33:01.665Z,96.10
2022-10-31T09:36:03.791Z,96.50
2022-10-31T09:39:05.506Z,95.90
2022-10-31T09:42:15.726Z,95.90
2022-10-31T09:45:33.888Z,95.10
2022-10-31T09:48:45.602Z,95.80
2022-10-31T09:51:56.115Z,94.80
2022-10-31T09:54:59.854Z,95.50
2022-10-31T09:58:02.819Z,95.60
2022-10-31T10:01:05.696Z,95.70
2022-10-31T10:04:34.873Z,95.50
2022-10-31T10:08:03.540Z,94.60
2022-10-31T10:11:33.379Z,94.40
2022-10-31T10:14:44.286Z,94.40
2022-10-31T10:18:13.169Z,94.00
2022-10-31T10:21:38.775Z,94.00
2022-10-31T10:24:43.392Z,93.80
2022-10-31T10:28:24.433Z,93.80
2022-10-31T10:31:32.535Z,93.90
2022-10-31T10:34:50.118Z,94.60
2022-10-31T10:37:58.368Z,94.50
2022-10-31T10:41:05.705Z,94.40
2022-10-31T10:44:11.067Z,94.40
2022-10-31T10:47:31.570Z,94.20
2022-10-31T10:50:36.089Z,93.60
2022-10-31T10:54:00.271Z,94.70
2022-10-31T10:57:08.946Z,97.20
2022-10-31T11:00:43.145Z,95.00
2022-10-31T11:03:44.751Z,93.70
2022-10-31T11:06:47.969Z,94.40
2022-10-31T11:09:49.885Z,94.30
2022-10-31T11:13:01.415Z,94.20
2022-10-31T11:16:08.929Z,93.90
2022-10-31T11:19:13.226Z,94.60
2022-10-31T11:22:21.457Z,94.20
2022-10-31T11:25:25.253Z,93.50
2022-10-31T11:28:30.212Z,94.10
2022-10-31T11:31:33.812Z,94.10
2022-10-31T11:34:43.842Z,94.00
2022-10-31T11:37:47.059Z,93.70
2022-10-31T11:41:19.366Z,93.60
2022-10-31T11:44:28.180Z,92.80
2022-10-31T11:47:33.342Z,92.70
2022-10-31T11:50:43.376Z,93.40
2022-10-31T11:53:56.723Z,93.60
2022-10-31T11:57:01.765Z,93.50
2022-10-31T12:00:07.106Z,93.30
2022-10-31T12:03:28.378Z,93.10
2022-10-31T12:06:34.355Z,92.60
2022-10-31T12:09:37.751Z,93.10
2022-10-31T12:13:16.756Z,93.10
2022-10-31T12:16:35.106Z,92.40
2022-10-31T12:20:07.190Z,92.30
2022-10-31T12:23:35.639Z,92.30
2022-10-31T12:27:01.990Z,92.20
2022-10-31T12:30:24.912Z,92.10
2022-10-31T12:33:38.034Z,92.10
2022-10-31T12:37:01.016Z,93.20
2022-10-31T12:40:40.625Z,92.80
2022-10-31T12:43:45.356Z,92.00
2022-10-31T12:46:46.933Z,92.90
2022-10-31T12:50:16.496Z,92.70
2022-10-31T12:53:48.379Z,92.00
2022-10-31T12:57:23.231Z,92.80
2022-10-31T13:00:30.339Z,91.70
2022-10-31T13:03:40.141Z,92.80
2022-10-31T13:06:47.677Z,92.70
2022-10-31T13:10:14.359Z,93.00
2022-10-31T13:13:21.795Z,91.30
2022-10-31T13:16:29.587Z,92.10
2022-10-31T13:19:46.159Z,92.10
2022-10-31T13:22:52.008Z,92.50
2022-10-31T13:25:56.895Z,92.20
2022-10-31T13:29:05.932Z,92.20
2022-10-31T13:32:08.493Z,92.10
2022-10-31T13:35:24.669Z,91.60
2022-10-31T13:38:42.706Z,90.90
2022-10-31T13:41:53.003Z,91.60
2022-10-31T13:44:54.619Z,90.70
2022-10-31T13:48:32.641Z,91.50
2022-10-31T13:51:35.986Z,90.70
2022-10-31T13:54:41.735Z,91.50
2022-10-31T13:57:44.761Z,91.40
2022-10-31T14:00:46.474Z,91.40
2022-10-31T14:04:11.223Z,91.70
2022-10-31T14:07:17.365Z,90.30
2022-10-31T14:10:29.424Z,91.70
2022-10-31T14:13:38.311Z,90.40
2022-10-31T14:16:43.829Z,90.90
2022-10-31T14:20:00.968Z,90.80
2022-10-31T14:23:31.490Z,89.90
2022-10-31T14:26:34.154Z,89.80
2022-10-31T14:29:35.749Z,92.10
2022-10-31T14:32:37.715Z,91.00
2022-10-31T14:36:02.599Z,90.90
2022-10-31T14:39:28.897Z,89.10
2022-10-31T14:42:30.485Z,90.70
2022-10-31T14:45:51.841Z,90.50
2022-10-31T14:49:05.521Z,88.80
2022-10-31T14:52:09.430Z,88.90
2022-10-31T14:55:14.075Z,90.20
2022-10-31T14:58:21.644Z,90.10
2022-10-31T15:01:30.565Z,90.10
2022-10-31T15:04:33.625Z,89.40
2022-10-31T15:07:37.581Z,89.60
2022-10-31T15:10:45.373Z,89.80
2022-10-31T15:13:52.221Z,89.40
2022-10-31T15:16:54.883Z,89.20
2022-10-31T15:19:57.461Z,89.70
2022-10-31T15:23:00.506Z,89.90
2022-10-31T15:26:06.509Z,89.40
2022-10-31T15:29:17.087Z,89.50
2022-10-31T15:32:23.633Z,89.30
2022-10-31T15:35:30.345Z,89.90
2022-10-31T15:38:31.972Z,88.80
2022-10-31T15:41:53.242Z,89.00
2022-10-31T15:45:13.884Z,89.00
2022-10-31T15:48:23.125Z,87.70
2022-10-31T15:51:34.778Z,89.40
2022-10-31T15:54:43.436Z,89.90
2022-10-31T15:57:47.967Z,90.00
2022-10-31T16:01:20.070Z,90.10
2022-10-31T16:04:24.872Z,88.50
2022-10-31T16:07:27.292Z,89.80
2022-10-31T16:10:35.979Z,90.00
2022-10-31T16:13:42.041Z,90.20
2022-10-31T16:16:49.103Z,90.00
2022-10-31T16:19:58.740Z,89.60
2022-10-31T16:23:01.952Z,87.60
2022-10-31T16:26:07.595Z,89.50
2022-10-31T16:29:29.698Z,89.30
2022-10-31T16:32:56.735Z,89.80
2022-10-31T16:36:09.616Z,88.00
2022-10-31T16:39:18.269Z,89.60
2022-10-31T16:42:19.977Z,89.50
2022-10-31T16:45:24.137Z,89.30
2022-10-31T16:48:25.721Z,89.10
2022-10-31T16:51:27.225Z,88.90
2022-10-31T16:54:30.358Z,89.40
2022-10-31T16:57:32.435Z,90.00
2022-10-31T17:00:33.958Z,89.70
2022-10-31T17:03:36.183Z,88.50
2022-10-31T17:06:37.750Z,88.50
2022-10-31T17:09:39.311Z,88.20
2022-10-31T17:12:45.079Z,88.50
2022-10-31T17:15:50.183Z,88.30
2022-10-31T17:18:51.725Z,88.30
2022-10-31T17:21:53.269Z,89.10
2022-10-31T17:24:56.933Z,88.80
2022-10-31T17:27:59.491Z,89.60
2022-10-31T17:31:01.672Z,90.20
2022-10-31T17:34:05.150Z,89.50
2022-10-31T17:37:07.595Z,89.90
2022-10-31T17:40:11.256Z,90.40
2022-10-31T17:43:13.023Z,88.50
2022-10-31T17:46:14.836Z,88.50
2022-10-31T17:49:16.500Z,88.60
2022-10-31T17:52:18.406Z,89.80
2022-10-31T17:55:20.568Z,89.90
2022-10-31T17:58:29.626Z,89.40
2022-10-31T18:01:31.844Z,89.10
2022-10-31T18:04:33.609Z,90.50
2022-10-31T18:07:36.232Z,88.00
2022-10-31T18:10:39.024Z,87.60
2022-10-31T18:13:41.339Z,88.30
2022-10-31T18:16:43.401Z,86.00
2022-10-31T18:19:48.691Z,90.10
2022-10-31T18:22:50.551Z,86.40
2022-10-31T18:25:55.505Z,88.00
2022-10-31T18:28:57.445Z,88.00
2022-10-31T18:31:59.476Z,87.80
2022-10-31T18:35:01.299Z,87.60
2022-10-31T18:38:14.226Z,86.80
2022-10-31T18:41:22.558Z,86.00
2022-10-31T18:44:27.995Z,86.50
2022-10-31T18:47:29.931Z,86.60
2022-10-31T18:50:34.895Z,88.00
2022-10-31T18:53:37.419Z,87.80
2022-10-31T18:56:39.287Z,86.00
2022-10-31T18:59:43.381Z,87.30
2022-10-31T19:02:45.283Z,85.80
2022-10-31T19:05:47.075Z,86.90
2022-10-31T19:08:49.304Z,85.80
2022-10-31T19:11:50.978Z,86.90
2022-10-31T19:14:52.561Z,84.20
2022-10-31T19:17:55.507Z,83.90
2022-10-31T19:21:04.511Z,84.80
2022-10-31T19:24:06.206Z,83.40
2022-10-31T19:27:10.101Z,83.60
2022-10-31T19:30:14.074Z,84.60
2022-10-31T19:33:17.948Z,83.50
2022-10-31T19:36:20.318Z,83.90
2022-10-31T19:39:22.032Z,83.70
2022-10-31T19:42:24.255Z,84.00
2022-10-31T19:45:26.009Z,85.20
2022-10-31T19:48:28.331Z,84.10
2022-10-31T19:51:32.960Z,85.70
2022-10-31T19:54:43.084Z,81.50
2022-10-31T19:58:01.956Z,84.60
2022-10-31T20:01:09.152Z,84.10
2022-10-31T20:04:11.051Z,83.40
2022-10-31T20:07:15.928Z,83.80
2022-10-31T20:10:17.652Z,90.10
2022-10-31T20:13:26.803Z,83.20
2022-10-31T20:16:37.341Z,83.10
2022-10-31T20:19:43.692Z,83.00
2022-10-31T20:22:47.143Z,86.20
2022-10-31T20:25:50.037Z,83.50
2022-10-31T20:28:51.572Z,83.30
2022-10-31T20:31:53.078Z,83.50
2022-10-31T20:34:54.716Z,83.50
2022-10-31T20:37:56.636Z,82.90
2022-10-31T20:41:02.322Z,84.60
2022-10-31T20:44:03.971Z,83.30
2022-10-31T20:47:06.490Z,83.50
2022-10-31T20:50:08.274Z,83.50
2022-10-31T20:53:09.930Z,83.60
2022-10-31T20:56:16.994Z,83.50
2022-10-31T20:59:19.769Z,82.00
2022-10-31T21:02:21.516Z,83.50
2022-10-31T21:05:23.143Z,83.40
2022-10-31T21:08:25.560Z,83.50
2022-10-31T21:11:28.219Z,84.20
2022-10-31T21:14:29.801Z,83.20
2022-10-31T21:17:31.353Z,83.20
2022-10-31T21:20:33.121Z,83.50
2022-10-31T21:23:36.072Z,83.10
2022-10-31T21:26:40.712Z,83.30
2022-10-31T21:29:42.291Z,84.60
2022-10-31T21:32:43.877Z,83.80
2022-10-31T21:35:52.260Z,83.30
2022-10-31T21:38:55.334Z,83.00
2022-10-31T21:42:00.748Z,83.80
2022-10-31T21:45:02.360Z,85.40
2022-10-31T21:48:04.303Z,84.50
2022-10-31T21:51:09.063Z,83.90
2022-10-31T21:54:30.169Z,83.50
2022-10-31T21:57:32.001Z,82.00
2022-10-31T22:00:33.750Z,84.50
2022-10-31T22:03:39.583Z,83.50
2022-10-31T22:06:41.185Z,83.60
2022-10-31T22:09:47.114Z,83.70
2022-10-31T22:12:48.644Z,85.20
2022-10-31T22:15:50.249Z,83.90
2022-10-31T22:18:53.919Z,84.10
2022-10-31T22:21:55.467Z,84.00
2022-10-31T22:24:57.025Z,85.30
2022-10-31T22:27:58.733Z,84.20
2022-10-31T22:31:05.310Z,84.30
2022-10-31T22:34:07.551Z,84.10
2022-10-31T22:37:09.162Z,84.80
2022-10-31T22:40:11.234Z,84.30
2022-10-31T22:43:12.985Z,84.90
2022-10-31T22:46:23.792Z,84.60
2022-10-31T22:49:25.492Z,85.70
2022-10-31T22:52:27.248Z,90.20
2022-10-31T22:55:29.114Z,84.50
2022-10-31T22:58:32.258Z,84.80
2022-10-31T23:01:34.623Z,85.30
2022-10-31T23:04:36.425Z,85.80
2022-10-31T23:07:40.334Z,84.70
2022-10-31T23:10:42.216Z,84.80
2022-10-31T23:14:04.377Z,84.60
2022-10-31T23:17:05.998Z,85.20
2022-10-31T23:20:08.020Z,85.60
2022-10-31T23:23:09.536Z,83.90
2022-10-31T23:26:29.502Z,84.60
2022-10-31T23:29:31.118Z,84.20
2022-10-31T23:32:35.935Z,85.20
2022-10-31T23:35:37.785Z,84.60
2022-10-31T23:38:39.501Z,86.40
2022-10-31T23:41:41.373Z,86.50
2022-10-31T23:44:43.200Z,86.10
2022-10-31T23:47:44.767Z,84.50
2022-10-31T23:50:52.046Z,84.30
2022-10-31T23:53:53.622Z,87.40
2022-10-31T23:56:55.834Z,84.40
2022-10-31T23:59:57.380Z,84.70
